sensor_id;sensor_type;location;lat;lon;timestamp;P1;durP1;ratioP1;P2;durP2;ratioP2
20456;SDS011;10387;51.102;6.848;2023-08-08T00:02:06;2.43;;;2.10;;
20456;SDS011;10387;51.102;6.848;2023-08-08T00:04:33;2.90;;;2.17;;
20456;SDS011;10387;51.102;6.848;2023-08-08T00:06:59;4.27;;;2.70;;
20456;SDS011;10387;51.102;6.848;2023-08-08T00:09:25;5.87;;;2.53;;
20456;SDS011;10387;51.102;6.848;2023-08-08T00:11:51;3.17;;;2.40;;
20456;SDS011;10387;51.102;6.848;2023-08-08T00:14:17;2.63;;;2.30;;
20456;SDS011;10387;51.102;6.848;2023-08-08T00:16:43;4.23;;;2.70;;
20456;SDS011;10387;51.102;6.848;2023-08-08T00:19:10;5.77;;;3.00;;
20456;SDS011;10387;51.102;6.848;2023-08-08T00:21:36;4.00;;;2.53;;
20456;SDS011;10387;51.102;6.848;2023-08-08T00:24:05;5.43;;;2.93;;
20456;SDS011;10387;51.102;6.848;2023-08-08T00:26:31;3.07;;;2.53;;
20456;SDS011;10387;51.102;6.848;2023-08-08T00:28:57;4.47;;;2.97;;
20456;SDS011;10387;51.102;6.848;2023-08-08T00:31:23;4.27;;;2.73;;
20456;SDS011;10387;51.102;6.848;2023-08-08T00:33:50;4.23;;;2.90;;
20456;SDS011;10387;51.102;6.848;2023-08-08T00:36:17;4.73;;;3.00;;
20456;SDS011;10387;51.102;6.848;2023-08-08T00:38:43;3.10;;;2.80;;
20456;SDS011;10387;51.102;6.848;2023-08-08T00:41:10;3.17;;;2.77;;
20456;SDS011;10387;51.102;6.848;2023-08-08T00:43:36;6.67;;;3.20;;
20456;SDS011;10387;51.102;6.848;2023-08-08T00:46:02;6.20;;;3.30;;
20456;SDS011;10387;51.102;6.848;2023-08-08T00:48:28;3.60;;;2.90;;
20456;SDS011;10387;51.102;6.848;2023-08-08T00:50:55;4.73;;;2.87;;
20456;SDS011;10387;51.102;6.848;2023-08-08T00:53:21;4.70;;;3.00;;
20456;SDS011;10387;51.102;6.848;2023-08-08T00:55:51;7.40;;;3.70;;
20456;SDS011;10387;51.102;6.848;2023-08-08T00:58:17;4.63;;;3.47;;
20456;SDS011;10387;51.102;6.848;2023-08-08T01:00:43;3.80;;;3.40;;
20456;SDS011;10387;51.102;6.848;2023-08-08T01:03:09;5.40;;;3.10;;
20456;SDS011;10387;51.102;6.848;2023-08-08T01:05:39;3.63;;;3.27;;
20456;SDS011;10387;51.102;6.848;2023-08-08T01:08:07;5.83;;;3.33;;
20456;SDS011;10387;51.102;6.848;2023-08-08T01:10:34;5.77;;;3.50;;
20456;SDS011;10387;51.102;6.848;2023-08-08T01:13:04;7.73;;;3.90;;
20456;SDS011;10387;51.102;6.848;2023-08-08T01:15:31;4.03;;;3.10;;
20456;SDS011;10387;51.102;6.848;2023-08-08T01:18:07;3.97;;;2.83;;
20456;SDS011;10387;51.102;6.848;2023-08-08T01:20:33;5.93;;;3.67;;
20456;SDS011;10387;51.102;6.848;2023-08-08T01:25:29;6.03;;;3.87;;
20456;SDS011;10387;51.102;6.848;2023-08-08T01:27:56;4.53;;;3.50;;
20456;SDS011;10387;51.102;6.848;2023-08-08T01:30:22;5.77;;;3.37;;
20456;SDS011;10387;51.102;6.848;2023-08-08T01:32:48;3.87;;;3.30;;
20456;SDS011;10387;51.102;6.848;2023-08-08T01:35:17;3.70;;;3.30;;
20456;SDS011;10387;51.102;6.848;2023-08-08T01:37:44;10.20;;;3.63;;
20456;SDS011;10387;51.102;6.848;2023-08-08T01:40:10;6.67;;;3.73;;
20456;SDS011;10387;51.102;6.848;2023-08-08T01:42:39;4.23;;;3.27;;
20456;SDS011;10387;51.102;6.848;2023-08-08T01:45:07;4.33;;;3.13;;
20456;SDS011;10387;51.102;6.848;2023-08-08T01:47:33;5.00;;;3.33;;
20456;SDS011;10387;51.102;6.848;2023-08-08T01:49:59;5.07;;;3.30;;
20456;SDS011;10387;51.102;6.848;2023-08-08T01:52:26;7.03;;;3.67;;
20456;SDS011;10387;51.102;6.848;2023-08-08T01:54:59;6.20;;;3.70;;
20456;SDS011;10387;51.102;6.848;2023-08-08T01:57:26;4.03;;;3.60;;
20456;SDS011;10387;51.102;6.848;2023-08-08T02:00:01;4.60;;;3.50;;
20456;SDS011;10387;51.102;6.848;2023-08-08T02:02:40;4.90;;;3.37;;
20456;SDS011;10387;51.102;6.848;2023-08-08T02:05:06;5.87;;;3.73;;
20456;SDS011;10387;51.102;6.848;2023-08-08T02:07:34;7.37;;;3.60;;
20456;SDS011;10387;51.102;6.848;2023-08-08T02:10:00;5.13;;;3.37;;
20456;SDS011;10387;51.102;6.848;2023-08-08T02:12:26;4.00;;;3.60;;
20456;SDS011;10387;51.102;6.848;2023-08-08T02:14:56;6.07;;;4.10;;
20456;SDS011;10387;51.102;6.848;2023-08-08T02:17:22;4.33;;;3.57;;
20456;SDS011;10387;51.102;6.848;2023-08-08T02:19:50;4.17;;;3.33;;
20456;SDS011;10387;51.102;6.848;2023-08-08T02:22:16;5.17;;;3.80;;
20456;SDS011;10387;51.102;6.848;2023-08-08T02:24:42;5.50;;;3.60;;
20456;SDS011;10387;51.102;6.848;2023-08-08T02:27:09;3.70;;;3.40;;
20456;SDS011;10387;51.102;6.848;2023-08-08T02:29:35;4.60;;;3.70;;
20456;SDS011;10387;51.102;6.848;2023-08-08T02:32:02;4.47;;;3.50;;
20456;SDS011;10387;51.102;6.848;2023-08-08T02:34:30;4.80;;;3.03;;
20456;SDS011;10387;51.102;6.848;2023-08-08T02:36:56;3.83;;;3.03;;
20456;SDS011;10387;51.102;6.848;2023-08-08T02:39:23;8.27;;;3.23;;
20456;SDS011;10387;51.102;6.848;2023-08-08T02:41:49;3.90;;;3.13;;
20456;SDS011;10387;51.102;6.848;2023-08-08T02:44:16;4.77;;;3.50;;
20456;SDS011;10387;51.102;6.848;2023-08-08T02:46:45;3.80;;;3.13;;
20456;SDS011;10387;51.102;6.848;2023-08-08T02:49:13;3.60;;;3.27;;
20456;SDS011;10387;51.102;6.848;2023-08-08T02:51:39;4.33;;;2.87;;
20456;SDS011;10387;51.102;6.848;2023-08-08T02:54:05;6.20;;;3.57;;
20456;SDS011;10387;51.102;6.848;2023-08-08T02:56:33;4.50;;;3.13;;
20456;SDS011;10387;51.102;6.848;2023-08-08T02:59:07;4.50;;;3.40;;
20456;SDS011;10387;51.102;6.848;2023-08-08T03:01:33;4.70;;;3.33;;
20456;SDS011;10387;51.102;6.848;2023-08-08T03:04:06;5.97;;;3.60;;
20456;SDS011;10387;51.102;6.848;2023-08-08T03:06:32;5.70;;;3.60;;
20456;SDS011;10387;51.102;6.848;2023-08-08T03:08:58;4.97;;;3.50;;
20456;SDS011;10387;51.102;6.848;2023-08-08T03:11:24;5.40;;;3.20;;
20456;SDS011;10387;51.102;6.848;2023-08-08T03:13:50;4.83;;;3.17;;
20456;SDS011;10387;51.102;6.848;2023-08-08T03:16:17;3.93;;;3.10;;
20456;SDS011;10387;51.102;6.848;2023-08-08T03:18:46;3.60;;;3.30;;
20456;SDS011;10387;51.102;6.848;2023-08-08T03:21:13;4.47;;;3.43;;
20456;SDS011;10387;51.102;6.848;2023-08-08T03:23:39;3.90;;;3.33;;
20456;SDS011;10387;51.102;6.848;2023-08-08T03:26:05;3.50;;;3.20;;
20456;SDS011;10387;51.102;6.848;2023-08-08T03:28:32;5.17;;;3.20;;
20456;SDS011;10387;51.102;6.848;2023-08-08T03:30:58;3.40;;;2.90;;
20456;SDS011;10387;51.102;6.848;2023-08-08T03:33:26;3.30;;;2.90;;
20456;SDS011;10387;51.102;6.848;2023-08-08T03:35:52;5.03;;;3.60;;
20456;SDS011;10387;51.102;6.848;2023-08-08T03:38:19;7.80;;;3.40;;
20456;SDS011;10387;51.102;6.848;2023-08-08T03:40:52;5.47;;;3.67;;
20456;SDS011;10387;51.102;6.848;2023-08-08T03:43:19;5.47;;;3.50;;
20456;SDS011;10387;51.102;6.848;2023-08-08T03:45:45;5.80;;;3.10;;
20456;SDS011;10387;51.102;6.848;2023-08-08T03:48:12;4.50;;;3.40;;
20456;SDS011;10387;51.102;6.848;2023-08-08T03:50:39;5.80;;;3.20;;
20456;SDS011;10387;51.102;6.848;2023-08-08T03:53:06;8.13;;;3.50;;
20456;SDS011;10387;51.102;6.848;2023-08-08T03:55:32;6.93;;;3.57;;
20456;SDS011;10387;51.102;6.848;2023-08-08T03:57:59;5.13;;;3.37;;
20456;SDS011;10387;51.102;6.848;2023-08-08T04:00:25;5.63;;;3.50;;
20456;SDS011;10387;51.102;6.848;2023-08-08T04:02:52;6.37;;;3.60;;
20456;SDS011;10387;51.102;6.848;2023-08-08T04:05:18;5.57;;;3.70;;
20456;SDS011;10387;51.102;6.848;2023-08-08T04:07:44;7.80;;;3.87;;
20456;SDS011;10387;51.102;6.848;2023-08-08T04:10:11;5.70;;;3.73;;
20456;SDS011;10387;51.102;6.848;2023-08-08T04:12:37;7.37;;;3.67;;
20456;SDS011;10387;51.102;6.848;2023-08-08T04:15:03;5.70;;;3.43;;
20456;SDS011;10387;51.102;6.848;2023-08-08T04:17:30;6.33;;;3.63;;
20456;SDS011;10387;51.102;6.848;2023-08-08T04:19:56;5.93;;;3.97;;
20456;SDS011;10387;51.102;6.848;2023-08-08T04:22:24;4.57;;;3.90;;
20456;SDS011;10387;51.102;6.848;2023-08-08T04:24:50;5.60;;;3.87;;
20456;SDS011;10387;51.102;6.848;2023-08-08T04:27:16;6.40;;;3.90;;
20456;SDS011;10387;51.102;6.848;2023-08-08T04:29:42;7.77;;;4.13;;
20456;SDS011;10387;51.102;6.848;2023-08-08T04:32:08;5.63;;;3.67;;
20456;SDS011;10387;51.102;6.848;2023-08-08T04:34:35;9.80;;;4.13;;
20456;SDS011;10387;51.102;6.848;2023-08-08T04:37:01;6.03;;;4.30;;
20456;SDS011;10387;51.102;6.848;2023-08-08T04:39:27;5.27;;;4.10;;
20456;SDS011;10387;51.102;6.848;2023-08-08T04:41:53;5.27;;;4.00;;
20456;SDS011;10387;51.102;6.848;2023-08-08T04:44:22;7.70;;;4.33;;
20456;SDS011;10387;51.102;6.848;2023-08-08T04:46:48;5.77;;;4.20;;
20456;SDS011;10387;51.102;6.848;2023-08-08T04:49:14;12.27;;;4.47;;
20456;SDS011;10387;51.102;6.848;2023-08-08T04:51:45;9.13;;;4.27;;
20456;SDS011;10387;51.102;6.848;2023-08-08T04:54:11;5.90;;;4.13;;
20456;SDS011;10387;51.102;6.848;2023-08-08T04:56:37;4.90;;;4.37;;
20456;SDS011;10387;51.102;6.848;2023-08-08T04:59:07;6.77;;;4.47;;
20456;SDS011;10387;51.102;6.848;2023-08-08T05:01:33;5.67;;;4.40;;
20456;SDS011;10387;51.102;6.848;2023-08-08T05:03:59;9.30;;;4.70;;
20456;SDS011;10387;51.102;6.848;2023-08-08T05:06:26;8.03;;;4.40;;
20456;SDS011;10387;51.102;6.848;2023-08-08T05:08:52;7.20;;;4.70;;
20456;SDS011;10387;51.102;6.848;2023-08-08T05:11:18;6.57;;;4.80;;
20456;SDS011;10387;51.102;6.848;2023-08-08T05:13:44;6.87;;;4.43;;
20456;SDS011;10387;51.102;6.848;2023-08-08T05:16:10;6.57;;;4.47;;
20456;SDS011;10387;51.102;6.848;2023-08-08T05:18:36;6.57;;;4.40;;
20456;SDS011;10387;51.102;6.848;2023-08-08T05:21:05;9.63;;;5.03;;
20456;SDS011;10387;51.102;6.848;2023-08-08T05:23:31;6.43;;;4.83;;
20456;SDS011;10387;51.102;6.848;2023-08-08T05:25:57;5.43;;;4.30;;
20456;SDS011;10387;51.102;6.848;2023-08-08T05:28:23;7.93;;;5.20;;
20456;SDS011;10387;51.102;6.848;2023-08-08T05:30:50;7.47;;;4.67;;
20456;SDS011;10387;51.102;6.848;2023-08-08T05:33:16;6.43;;;5.07;;
20456;SDS011;10387;51.102;6.848;2023-08-08T05:35:58;9.30;;;5.30;;
20456;SDS011;10387;51.102;6.848;2023-08-08T05:38:25;7.43;;;4.80;;
20456;SDS011;10387;51.102;6.848;2023-08-08T05:43:23;5.53;;;4.80;;
20456;SDS011;10387;51.102;6.848;2023-08-08T05:45:49;10.03;;;5.40;;
20456;SDS011;10387;51.102;6.848;2023-08-08T05:48:16;7.30;;;5.30;;
20456;SDS011;10387;51.102;6.848;2023-08-08T05:50:45;8.57;;;5.47;;
20456;SDS011;10387;51.102;6.848;2023-08-08T05:53:11;6.63;;;4.80;;
20456;SDS011;10387;51.102;6.848;2023-08-08T05:55:37;7.17;;;4.60;;
20456;SDS011;10387;51.102;6.848;2023-08-08T05:58:03;9.70;;;5.30;;
20456;SDS011;10387;51.102;6.848;2023-08-08T06:00:29;6.67;;;4.67;;
20456;SDS011;10387;51.102;6.848;2023-08-08T06:02:56;8.27;;;5.50;;
20456;SDS011;10387;51.102;6.848;2023-08-08T06:05:23;9.07;;;5.10;;
20456;SDS011;10387;51.102;6.848;2023-08-08T06:07:50;7.60;;;5.40;;
20456;SDS011;10387;51.102;6.848;2023-08-08T06:10:16;8.20;;;5.43;;
20456;SDS011;10387;51.102;6.848;2023-08-08T06:12:44;6.50;;;5.13;;
20456;SDS011;10387;51.102;6.848;2023-08-08T06:15:12;7.30;;;5.30;;
20456;SDS011;10387;51.102;6.848;2023-08-08T06:17:38;6.47;;;4.87;;
20456;SDS011;10387;51.102;6.848;2023-08-08T06:20:04;6.97;;;5.07;;
20456;SDS011;10387;51.102;6.848;2023-08-08T06:22:32;8.47;;;4.97;;
20456;SDS011;10387;51.102;6.848;2023-08-08T06:24:59;9.83;;;5.07;;
20456;SDS011;10387;51.102;6.848;2023-08-08T06:27:25;9.03;;;5.17;;
20456;SDS011;10387;51.102;6.848;2023-08-08T06:29:51;6.70;;;4.57;;
20456;SDS011;10387;51.102;6.848;2023-08-08T06:32:17;8.43;;;4.70;;
20456;SDS011;10387;51.102;6.848;2023-08-08T06:34:43;6.90;;;4.40;;
20456;SDS011;10387;51.102;6.848;2023-08-08T06:37:09;5.47;;;4.20;;
20456;SDS011;10387;51.102;6.848;2023-08-08T06:39:36;5.10;;;4.33;;
20456;SDS011;10387;51.102;6.848;2023-08-08T06:42:03;6.60;;;4.03;;
20456;SDS011;10387;51.102;6.848;2023-08-08T06:44:43;8.33;;;4.00;;
20456;SDS011;10387;51.102;6.848;2023-08-08T06:47:09;7.20;;;4.93;;
20456;SDS011;10387;51.102;6.848;2023-08-08T06:49:37;7.47;;;4.20;;
20456;SDS011;10387;51.102;6.848;2023-08-08T06:52:04;7.73;;;4.50;;
20456;SDS011;10387;51.102;6.848;2023-08-08T06:54:30;6.80;;;4.03;;
20456;SDS011;10387;51.102;6.848;2023-08-08T06:56:56;6.10;;;3.70;;
20456;SDS011;10387;51.102;6.848;2023-08-08T06:59:23;8.17;;;4.97;;
20456;SDS011;10387;51.102;6.848;2023-08-08T07:01:49;6.50;;;4.63;;
20456;SDS011;10387;51.102;6.848;2023-08-08T07:04:16;7.87;;;3.80;;
20456;SDS011;10387;51.102;6.848;2023-08-08T07:06:43;7.70;;;4.67;;
20456;SDS011;10387;51.102;6.848;2023-08-08T07:09:12;6.83;;;4.30;;
20456;SDS011;10387;51.102;6.848;2023-08-08T07:11:39;6.60;;;4.17;;
20456;SDS011;10387;51.102;6.848;2023-08-08T07:14:06;6.47;;;4.80;;
20456;SDS011;10387;51.102;6.848;2023-08-08T07:16:32;6.97;;;4.73;;
20456;SDS011;10387;51.102;6.848;2023-08-08T07:18:58;6.47;;;4.50;;
20456;SDS011;10387;51.102;6.848;2023-08-08T07:21:27;6.93;;;4.13;;
20456;SDS011;10387;51.102;6.848;2023-08-08T07:24:35;7.47;;;4.97;;
20456;SDS011;10387;51.102;6.848;2023-08-08T07:27:29;6.67;;;4.77;;
20456;SDS011;10387;51.102;6.848;2023-08-08T07:29:56;9.77;;;5.20;;
20456;SDS011;10387;51.102;6.848;2023-08-08T07:32:42;8.23;;;4.80;;
20456;SDS011;10387;51.102;6.848;2023-08-08T07:35:09;11.30;;;5.67;;
20456;SDS011;10387;51.102;6.848;2023-08-08T07:37:35;8.60;;;5.53;;
20456;SDS011;10387;51.102;6.848;2023-08-08T07:40:02;9.70;;;5.47;;
20456;SDS011;10387;51.102;6.848;2023-08-08T07:42:29;6.83;;;5.13;;
20456;SDS011;10387;51.102;6.848;2023-08-08T07:44:55;6.10;;;5.23;;
20456;SDS011;10387;51.102;6.848;2023-08-08T07:47:21;8.00;;;4.87;;
20456;SDS011;10387;51.102;6.848;2023-08-08T07:49:52;9.23;;;5.57;;
20456;SDS011;10387;51.102;6.848;2023-08-08T07:52:18;9.50;;;5.17;;
20456;SDS011;10387;51.102;6.848;2023-08-08T07:54:44;8.80;;;5.37;;
20456;SDS011;10387;51.102;6.848;2023-08-08T07:57:23;8.57;;;5.23;;
20456;SDS011;10387;51.102;6.848;2023-08-08T07:59:50;10.03;;;5.07;;
20456;SDS011;10387;51.102;6.848;2023-08-08T08:02:16;7.63;;;5.33;;
20456;SDS011;10387;51.102;6.848;2023-08-08T08:04:42;5.30;;;4.77;;
20456;SDS011;10387;51.102;6.848;2023-08-08T08:07:08;7.23;;;4.60;;
20456;SDS011;10387;51.102;6.848;2023-08-08T08:09:34;10.87;;;5.17;;
20456;SDS011;10387;51.102;6.848;2023-08-08T08:12:01;6.17;;;4.67;;
20456;SDS011;10387;51.102;6.848;2023-08-08T08:14:28;7.33;;;4.43;;
20456;SDS011;10387;51.102;6.848;2023-08-08T08:16:54;7.23;;;5.17;;
20456;SDS011;10387;51.102;6.848;2023-08-08T08:19:20;6.37;;;4.97;;
20456;SDS011;10387;51.102;6.848;2023-08-08T08:21:46;6.90;;;5.00;;
20456;SDS011;10387;51.102;6.848;2023-08-08T08:24:12;9.43;;;5.57;;
20456;SDS011;10387;51.102;6.848;2023-08-08T08:26:39;6.40;;;5.00;;
20456;SDS011;10387;51.102;6.848;2023-08-08T08:29:05;6.17;;;5.57;;
20456;SDS011;10387;51.102;6.848;2023-08-08T08:31:33;7.23;;;5.10;;
20456;SDS011;10387;51.102;6.848;2023-08-08T08:34:02;6.93;;;5.07;;
20456;SDS011;10387;51.102;6.848;2023-08-08T08:36:28;7.97;;;5.73;;
20456;SDS011;10387;51.102;6.848;2023-08-08T08:38:56;8.37;;;5.53;;
20456;SDS011;10387;51.102;6.848;2023-08-08T08:44:04;9.33;;;6.10;;
20456;SDS011;10387;51.102;6.848;2023-08-08T08:46:34;6.60;;;5.90;;
20456;SDS011;10387;51.102;6.848;2023-08-08T08:49:02;10.80;;;6.30;;
20456;SDS011;10387;51.102;6.848;2023-08-08T08:51:35;7.50;;;6.43;;
20456;SDS011;10387;51.102;6.848;2023-08-08T08:54:25;14.90;;;7.40;;
20456;SDS011;10387;51.102;6.848;2023-08-08T08:57:17;10.17;;;6.13;;
20456;SDS011;10387;51.102;6.848;2023-08-08T09:00:24;9.27;;;6.50;;
20456;SDS011;10387;51.102;6.848;2023-08-08T09:02:52;7.07;;;5.73;;
20456;SDS011;10387;51.102;6.848;2023-08-08T09:05:20;7.90;;;6.53;;
20456;SDS011;10387;51.102;6.848;2023-08-08T09:07:49;10.53;;;7.33;;
20456;SDS011;10387;51.102;6.848;2023-08-08T09:10:18;11.50;;;6.90;;
20456;SDS011;10387;51.102;6.848;2023-08-08T09:12:48;8.93;;;7.20;;
20456;SDS011;10387;51.102;6.848;2023-08-08T09:15:14;12.70;;;8.43;;
20456;SDS011;10387;51.102;6.848;2023-08-08T09:17:43;12.87;;;8.00;;
20456;SDS011;10387;51.102;6.848;2023-08-08T09:20:11;8.10;;;7.27;;
20456;SDS011;10387;51.102;6.848;2023-08-08T09:22:37;9.73;;;7.73;;
20456;SDS011;10387;51.102;6.848;2023-08-08T09:25:05;9.67;;;8.50;;
20456;SDS011;10387;51.102;6.848;2023-08-08T09:27:32;10.80;;;8.60;;
20456;SDS011;10387;51.102;6.848;2023-08-08T09:29:58;9.67;;;7.77;;
20456;SDS011;10387;51.102;6.848;2023-08-08T09:32:28;11.13;;;6.90;;
20456;SDS011;10387;51.102;6.848;2023-08-08T09:34:55;9.30;;;7.57;;
20456;SDS011;10387;51.102;6.848;2023-08-08T09:37:21;9.23;;;7.13;;
20456;SDS011;10387;51.102;6.848;2023-08-08T09:39:55;11.03;;;7.90;;
20456;SDS011;10387;51.102;6.848;2023-08-08T09:42:21;13.03;;;7.87;;
20456;SDS011;10387;51.102;6.848;2023-08-08T09:44:47;9.47;;;7.23;;
20456;SDS011;10387;51.102;6.848;2023-08-08T09:47:14;9.63;;;6.77;;
20456;SDS011;10387;51.102;6.848;2023-08-08T09:49:40;10.60;;;7.53;;
20456;SDS011;10387;51.102;6.848;2023-08-08T09:52:07;9.63;;;7.27;;
20456;SDS011;10387;51.102;6.848;2023-08-08T09:54:33;10.47;;;7.37;;
20456;SDS011;10387;51.102;6.848;2023-08-08T09:57:01;8.40;;;7.37;;
20456;SDS011;10387;51.102;6.848;2023-08-08T09:59:28;9.23;;;7.23;;
20456;SDS011;10387;51.102;6.848;2023-08-08T10:01:54;10.00;;;7.10;;
20456;SDS011;10387;51.102;6.848;2023-08-08T10:04:22;8.70;;;6.30;;
20456;SDS011;10387;51.102;6.848;2023-08-08T10:06:49;8.53;;;6.17;;
20456;SDS011;10387;51.102;6.848;2023-08-08T10:09:15;9.20;;;6.87;;
20456;SDS011;10387;51.102;6.848;2023-08-08T10:11:44;6.90;;;6.03;;
20456;SDS011;10387;51.102;6.848;2023-08-08T10:14:11;7.67;;;6.73;;
20456;SDS011;10387;51.102;6.848;2023-08-08T10:16:47;8.13;;;6.47;;
20456;SDS011;10387;51.102;6.848;2023-08-08T10:19:20;9.60;;;6.80;;
20456;SDS011;10387;51.102;6.848;2023-08-08T10:21:47;9.20;;;5.97;;
20456;SDS011;10387;51.102;6.848;2023-08-08T10:24:19;8.50;;;7.20;;
20456;SDS011;10387;51.102;6.848;2023-08-08T10:29:19;9.97;;;6.63;;
20456;SDS011;10387;51.102;6.848;2023-08-08T10:34:40;8.37;;;6.20;;
20456;SDS011;10387;51.102;6.848;2023-08-08T10:37:13;8.50;;;6.37;;
20456;SDS011;10387;51.102;6.848;2023-08-08T10:39:53;10.10;;;6.10;;
20456;SDS011;10387;51.102;6.848;2023-08-08T10:42:22;7.57;;;6.20;;
20456;SDS011;10387;51.102;6.848;2023-08-08T10:44:52;7.43;;;6.07;;
20456;SDS011;10387;51.102;6.848;2023-08-08T10:47:31;6.53;;;5.83;;
20456;SDS011;10387;51.102;6.848;2023-08-08T10:49:59;6.67;;;5.87;;
20456;SDS011;10387;51.102;6.848;2023-08-08T10:52:29;10.57;;;6.10;;
20456;SDS011;10387;51.102;6.848;2023-08-08T10:54:55;9.93;;;5.70;;
20456;SDS011;10387;51.102;6.848;2023-08-08T10:57:25;7.27;;;5.50;;
20456;SDS011;10387;51.102;6.848;2023-08-08T10:59:51;10.13;;;5.67;;
20456;SDS011;10387;51.102;6.848;2023-08-08T11:02:22;9.70;;;6.03;;
20456;SDS011;10387;51.102;6.848;2023-08-08T11:04:48;9.07;;;5.77;;
20456;SDS011;10387;51.102;6.848;2023-08-08T11:07:15;7.03;;;5.60;;
20456;SDS011;10387;51.102;6.848;2023-08-08T11:09:42;6.57;;;5.20;;
20456;SDS011;10387;51.102;6.848;2023-08-08T11:12:17;8.10;;;5.27;;
20456;SDS011;10387;51.102;6.848;2023-08-08T11:14:44;6.03;;;5.00;;
20456;SDS011;10387;51.102;6.848;2023-08-08T11:17:12;8.30;;;5.97;;
20456;SDS011;10387;51.102;6.848;2023-08-08T11:19:53;5.17;;;4.70;;
20456;SDS011;10387;51.102;6.848;2023-08-08T11:22:23;7.67;;;4.73;;
20456;SDS011;10387;51.102;6.848;2023-08-08T11:24:51;5.67;;;4.10;;
20456;SDS011;10387;51.102;6.848;2023-08-08T11:27:17;6.10;;;4.17;;
20456;SDS011;10387;51.102;6.848;2023-08-08T11:29:49;6.33;;;4.17;;
20456;SDS011;10387;51.102;6.848;2023-08-08T11:32:16;5.27;;;3.93;;
20456;SDS011;10387;51.102;6.848;2023-08-08T11:34:42;4.60;;;4.13;;
20456;SDS011;10387;51.102;6.848;2023-08-08T11:37:09;6.17;;;3.93;;
20456;SDS011;10387;51.102;6.848;2023-08-08T11:39:36;7.30;;;4.13;;
20456;SDS011;10387;51.102;6.848;2023-08-08T11:42:03;6.60;;;4.07;;
20456;SDS011;10387;51.102;6.848;2023-08-08T11:44:29;6.80;;;3.97;;
20456;SDS011;10387;51.102;6.848;2023-08-08T11:46:59;4.10;;;3.57;;
20456;SDS011;10387;51.102;6.848;2023-08-08T11:49:25;6.53;;;3.90;;
20456;SDS011;10387;51.102;6.848;2023-08-08T11:51:53;6.87;;;4.33;;
20456;SDS011;10387;51.102;6.848;2023-08-08T11:54:26;6.77;;;4.20;;
20456;SDS011;10387;51.102;6.848;2023-08-08T11:56:53;5.50;;;4.10;;
20456;SDS011;10387;51.102;6.848;2023-08-08T11:59:19;7.13;;;4.53;;
20456;SDS011;10387;51.102;6.848;2023-08-08T12:01:46;6.87;;;4.80;;
20456;SDS011;10387;51.102;6.848;2023-08-08T12:04:12;7.53;;;5.17;;
20456;SDS011;10387;51.102;6.848;2023-08-08T12:06:38;6.60;;;4.83;;
20456;SDS011;10387;51.102;6.848;2023-08-08T12:09:04;8.40;;;5.10;;
20456;SDS011;10387;51.102;6.848;2023-08-08T12:11:34;6.67;;;4.63;;
20456;SDS011;10387;51.102;6.848;2023-08-08T12:14:01;5.37;;;4.50;;
20456;SDS011;10387;51.102;6.848;2023-08-08T12:16:28;7.33;;;5.40;;
20456;SDS011;10387;51.102;6.848;2023-08-08T12:18:57;6.57;;;4.80;;
20456;SDS011;10387;51.102;6.848;2023-08-08T12:21:23;5.63;;;5.13;;
20456;SDS011;10387;51.102;6.848;2023-08-08T12:23:49;7.17;;;5.43;;
20456;SDS011;10387;51.102;6.848;2023-08-08T12:26:17;5.83;;;5.23;;
20456;SDS011;10387;51.102;6.848;2023-08-08T12:28:43;7.90;;;5.70;;
20456;SDS011;10387;51.102;6.848;2023-08-08T12:31:09;8.73;;;5.97;;
20456;SDS011;10387;51.102;6.848;2023-08-08T12:33:35;4.93;;;4.30;;
20456;SDS011;10387;51.102;6.848;2023-08-08T12:36:01;3.80;;;3.50;;
20456;SDS011;10387;51.102;6.848;2023-08-08T12:38:28;5.10;;;3.40;;
20456;SDS011;10387;51.102;6.848;2023-08-08T12:40:54;4.20;;;3.73;;
20456;SDS011;10387;51.102;6.848;2023-08-08T12:43:20;4.33;;;3.57;;
20456;SDS011;10387;51.102;6.848;2023-08-08T12:45:46;5.20;;;4.10;;
20456;SDS011;10387;51.102;6.848;2023-08-08T12:48:13;4.53;;;4.13;;
20456;SDS011;10387;51.102;6.848;2023-08-08T12:50:39;5.13;;;4.67;;
20456;SDS011;10387;51.102;6.848;2023-08-08T12:53:05;5.20;;;4.20;;
20456;SDS011;10387;51.102;6.848;2023-08-08T12:55:32;5.87;;;4.57;;
20456;SDS011;10387;51.102;6.848;2023-08-08T12:57:59;7.37;;;4.73;;
20456;SDS011;10387;51.102;6.848;2023-08-08T13:00:25;4.93;;;4.30;;
20456;SDS011;10387;51.102;6.848;2023-08-08T13:02:51;6.13;;;4.50;;
20456;SDS011;10387;51.102;6.848;2023-08-08T13:05:17;7.87;;;5.10;;
20456;SDS011;10387;51.102;6.848;2023-08-08T13:07:43;7.77;;;5.07;;
20456;SDS011;10387;51.102;6.848;2023-08-08T13:10:09;6.33;;;4.77;;
20456;SDS011;10387;51.102;6.848;2023-08-08T13:12:35;5.37;;;4.53;;
20456;SDS011;10387;51.102;6.848;2023-08-08T13:15:02;6.83;;;4.70;;
20456;SDS011;10387;51.102;6.848;2023-08-08T13:17:28;5.67;;;4.67;;
20456;SDS011;10387;51.102;6.848;2023-08-08T13:19:54;5.53;;;4.90;;
20456;SDS011;10387;51.102;6.848;2023-08-08T13:22:21;5.50;;;4.90;;
20456;SDS011;10387;51.102;6.848;2023-08-08T13:24:48;5.87;;;4.97;;
20456;SDS011;10387;51.102;6.848;2023-08-08T13:27:14;6.27;;;5.10;;
20456;SDS011;10387;51.102;6.848;2023-08-08T13:29:40;5.83;;;5.07;;
20456;SDS011;10387;51.102;6.848;2023-08-08T13:32:06;7.90;;;5.10;;
20456;SDS011;10387;51.102;6.848;2023-08-08T13:34:32;5.83;;;4.90;;
20456;SDS011;10387;51.102;6.848;2023-08-08T13:37:01;4.90;;;4.40;;
20456;SDS011;10387;51.102;6.848;2023-08-08T13:39:28;5.40;;;4.90;;
20456;SDS011;10387;51.102;6.848;2023-08-08T13:41:54;6.77;;;4.63;;
20456;SDS011;10387;51.102;6.848;2023-08-08T13:44:20;5.40;;;4.60;;
20456;SDS011;10387;51.102;6.848;2023-08-08T13:46:46;5.00;;;3.97;;
20456;SDS011;10387;51.102;6.848;2023-08-08T13:49:12;7.87;;;4.17;;
20456;SDS011;10387;51.102;6.848;2023-08-08T13:51:39;6.93;;;3.90;;
20456;SDS011;10387;51.102;6.848;2023-08-08T13:54:05;5.97;;;3.77;;
20456;SDS011;10387;51.102;6.848;2023-08-08T13:56:33;5.23;;;3.67;;
20456;SDS011;10387;51.102;6.848;2023-08-08T13:58:59;6.73;;;3.20;;
20456;SDS011;10387;51.102;6.848;2023-08-08T14:01:25;6.33;;;3.40;;
20456;SDS011;10387;51.102;6.848;2023-08-08T14:03:51;7.77;;;3.50;;
20456;SDS011;10387;51.102;6.848;2023-08-08T14:06:19;5.30;;;2.60;;
20456;SDS011;10387;51.102;6.848;2023-08-08T14:08:45;4.67;;;2.53;;
20456;SDS011;10387;51.102;6.848;2023-08-08T14:11:12;3.43;;;2.60;;
20456;SDS011;10387;51.102;6.848;2023-08-08T14:13:39;4.33;;;2.90;;
20456;SDS011;10387;51.102;6.848;2023-08-08T14:16:18;7.13;;;3.13;;
20456;SDS011;10387;51.102;6.848;2023-08-08T14:18:47;7.60;;;3.40;;
20456;SDS011;10387;51.102;6.848;2023-08-08T14:21:14;4.50;;;2.83;;
20456;SDS011;10387;51.102;6.848;2023-08-08T14:23:43;3.30;;;2.60;;
20456;SDS011;10387;51.102;6.848;2023-08-08T14:26:09;3.83;;;2.60;;
20456;SDS011;10387;51.102;6.848;2023-08-08T14:28:36;3.77;;;2.77;;
20456;SDS011;10387;51.102;6.848;2023-08-08T14:31:02;4.40;;;2.63;;
20456;SDS011;10387;51.102;6.848;2023-08-08T14:33:31;6.23;;;2.97;;
20456;SDS011;10387;51.102;6.848;2023-08-08T14:35:58;4.20;;;3.00;;
20456;SDS011;10387;51.102;6.848;2023-08-08T14:38:25;9.60;;;3.20;;
20456;SDS011;10387;51.102;6.848;2023-08-08T14:40:53;3.93;;;2.80;;
20456;SDS011;10387;51.102;6.848;2023-08-08T14:43:45;5.33;;;2.80;;
20456;SDS011;10387;51.102;6.848;2023-08-08T14:46:11;3.67;;;3.10;;
20456;SDS011;10387;51.102;6.848;2023-08-08T14:48:37;3.20;;;2.90;;
20456;SDS011;10387;51.102;6.848;2023-08-08T14:51:03;3.50;;;2.63;;
20456;SDS011;10387;51.102;6.848;2023-08-08T14:53:30;3.23;;;3.00;;
20456;SDS011;10387;51.102;6.848;2023-08-08T14:55:57;4.30;;;2.80;;
20456;SDS011;10387;51.102;6.848;2023-08-08T14:58:23;5.07;;;2.90;;
20456;SDS011;10387;51.102;6.848;2023-08-08T15:00:49;4.17;;;3.10;;
20456;SDS011;10387;51.102;6.848;2023-08-08T15:03:17;3.87;;;2.53;;
20456;SDS011;10387;51.102;6.848;2023-08-08T15:05:53;4.23;;;2.80;;